Time,TemperatureF,DewpointF,PressureIn,WindDirection,WindDirectionDegrees,WindSpeedMPH,WindSpeedGustMPH,Humidity,HourlyPrecipIn,Conditions,Clouds,dailyrainin,SoftwareType,DateUTC
2013-04-11 00:10:00,72.3,69.0,30.01,ESE,107,2.0,4.0,90,0.00,,,0.00,weatherlink.com 1.10,2013-04-11 04:10:00,
2013-04-11 00:25:00,72.5,70.0,30.00,East,95,3.0,5.0,91,0.00,,,0.00,weatherlink.com 1.10,2013-04-11 04:25:00,
2013-04-11 00:41:00,72.3,70.0,30.00,WSW,249,0.0,8.0,92,0.00,,,0.00,weatherlink.com 1.10,2013-04-11 04:41:00,
2013-04-11 00:55:00,72.1,70.0,30.00,ESE,108,5.0,8.0,92,0.00,,,0.00,weatherlink.com 1.10,2013-04-11 04:55:00,
2013-04-11 01:10:00,72.0,70.0,29.99,East,98,4.0,7.0,92,0.00,,,0.00,weatherlink.com 1.10,2013-04-11 05:10:00,
2013-04-11 01:25:00,72.1,70.0,29.99,ESE,117,2.0,4.0,92,0.00,,,0.00,weatherlink.com 1.10,2013-04-11 05:25:00,
2013-04-11 01:40:00,71.9,70.0,29.98,ESE,120,1.0,3.0,93,0.00,,,0.00,weatherlink.com 1.10,2013-04-11 05:40:00,
2013-04-11 01:55:00,71.8,70.0,29.98,East,101,2.0,5.0,94,0.00,,,0.00,weatherlink.com 1.10,2013-04-11 05:55:00,
2013-04-11 02:10:00,71.8,70.0,29.97,ESE,109,2.0,5.0,95,0.00,,,0.00,weatherlink.com 1.10,2013-04-11 06:10:00,
2013-04-11 02:25:00,71.9,71.0,29.96,South,181,1.0,5.0,95,0.00,,,0.00,weatherlink.com 1.10,2013-04-11 06:25:00,
2013-04-11 02:40:00,72.0,71.0,29.95,SSE,155,2.0,3.0,95,0.00,,,0.00,weatherlink.com 1.10,2013-04-11 06:40:00,
2013-04-11 02:55:00,72.1,71.0,29.95,SSE,159,0.0,5.0,95,0.00,,,0.00,weatherlink.com 1.10,2013-04-11 06:55:00,
2013-04-11 03:10:00,72.1,71.0,29.95,SE,134,1.0,7.0,95,0.00,,,0.00,weatherlink.com 1.10,2013-04-11 07:10:00,
2013-04-11 03:25:00,71.9,71.0,29.95,SSE,149,2.0,5.0,95,0.00,,,0.00,weatherlink.com 1.10,2013-04-11 07:25:00,
2013-04-11 03:40:00,71.9,71.0,29.95,SSE,157,0.0,6.0,96,0.00,,,0.00,weatherlink.com 1.10,2013-04-11 07:40:00,
2013-04-11 03:55:00,71.6,70.0,29.94,SSE,147,2.0,5.0,96,0.00,,,0.00,weatherlink.com 1.10,2013-04-11 07:55:00,
2013-04-11 04:10:00,71.4,70.0,29.94,ESE,113,2.0,4.0,96,0.00,,,0.00,weatherlink.com 1.10,2013-04-11 08:10:00,
2013-04-11 04:25:00,71.3,70.0,29.94,SSE,150,0.0,0.0,96,0.00,,,0.00,weatherlink.com 1.10,2013-04-11 08:25:00,
2013-04-11 04:40:00,71.3,70.0,29.94,ESE,116,1.0,4.0,97,0.00,,,0.00,weatherlink.com 1.10,2013-04-11 08:40:00,
2013-04-11 04:55:00,71.4,71.0,29.95,ESE,121,0.0,4.0,97,0.00,,,0.00,weatherlink.com 1.10,2013-04-11 08:55:00,
2013-04-11 05:10:00,71.4,71.0,29.95,SE,127,1.0,6.0,97,0.00,,,0.00,weatherlink.com 1.10,2013-04-11 09:10:00,
2013-04-11 05:25:00,71.5,71.0,29.95,East,84,1.0,6.0,97,0.00,,,0.00,weatherlink.com 1.10,2013-04-11 09:25:00,
2013-04-11 05:40:00,71.6,71.0,29.94,ESE,111,2.0,4.0,97,0.00,,,0.00,weatherlink.com 1.10,2013-04-11 09:40:00,
2013-04-11 05:55:00,71.6,71.0,29.95,ESE,123,0.0,4.0,97,0.00,,,0.00,weatherlink.com 1.10,2013-04-11 09:55:00,
2013-04-11 06:10:00,71.7,71.0,29.95,SE,124,0.0,5.0,97,0.00,,,0.00,weatherlink.com 1.10,2013-04-11 10:10:00,
2013-04-11 06:25:00,71.6,71.0,29.95,ESE,118,2.0,6.0,97,0.00,,,0.00,weatherlink.com 1.10,2013-04-11 10:25:00,
2013-04-11 06:40:00,71.5,71.0,29.94,East,95,6.0,7.0,97,0.00,,,0.00,weatherlink.com 1.10,2013-04-11 10:40:00,
2013-04-11 06:55:00,71.3,70.0,29.95,SE,127,2.0,5.0,97,0.00,,,0.00,weatherlink.com 1.10,2013-04-11 10:55:00,
2013-04-11 07:11:00,71.1,70.0,29.95,ESE,108,3.0,6.0,97,0.00,,,0.00,weatherlink.com 1.10,2013-04-11 11:11:00,
2013-04-11 07:26:00,70.9,70.0,29.96,SE,127,0.0,5.0,97,0.00,,,0.00,weatherlink.com 1.10,2013-04-11 11:26:00,
2013-04-11 07:41:00,70.9,70.0,29.96,SSE,153,1.0,7.0,97,0.00,,,0.00,weatherlink.com 1.10,2013-04-11 11:41:00,
2013-04-11 07:56:00,71.2,70.0,29.96,SE,131,2.0,8.0,97,0.00,,,0.00,weatherlink.com 1.10,2013-04-11 11:56:00,
2013-04-11 08:11:00,71.8,71.0,29.97,South,172,3.0,6.0,97,0.00,,,0.00,weatherlink.com 1.10,2013-04-11 12:11:00,
2013-04-11 08:27:00,72.7,72.0,29.97,ESE,115,2.0,9.0,96,0.00,,,0.00,weatherlink.com 1.10,2013-04-11 12:27:00,
2013-04-11 08:41:00,73.5,72.0,29.97,SSE,149,5.0,10.0,94,0.00,,,0.00,weatherlink.com 1.10,2013-04-11 12:41:00,
2013-04-11 09:11:00,74.8,72.0,29.97,SSE,147,1.0,9.0,91,0.00,,,0.00,weatherlink.com 1.10,2013-04-11 13:11:00,
2013-04-11 09:26:00,76.1,73.0,29.97,ESE,120,1.0,14.0,89,0.00,,,0.00,weatherlink.com 1.10,2013-04-11 13:26:00,
2013-04-11 09:41:00,77.1,73.0,29.98,East,98,7.0,14.0,86,0.00,,,0.00,weatherlink.com 1.10,2013-04-11 13:41:00,
2013-04-11 09:57:00,76.8,72.0,29.98,SSE,149,6.0,13.0,86,0.00,,,0.00,weatherlink.com 1.10,2013-04-11 13:57:00,
2013-04-11 10:11:00,77.3,73.0,29.98,SSE,158,9.0,16.0,85,0.00,,,0.00,weatherlink.com 1.10,2013-04-11 14:11:00,
2013-04-11 10:26:00,78.0,73.0,29.99,SSE,163,7.0,16.0,83,0.00,,,0.00,weatherlink.com 1.10,2013-04-11 14:26:00,
2013-04-11 10:41:00,78.4,73.0,29.98,SSE,160,4.0,12.0,83,0.00,,,0.00,weatherlink.com 1.10,2013-04-11 14:41:00,
2013-04-11 10:56:00,80.5,73.0,29.98,ESE,118,5.0,18.0,79,0.00,,,0.00,weatherlink.com 1.10,2013-04-11 14:56:00,
2013-04-11 11:11:00,80.2,72.0,29.98,SSE,159,11.0,13.0,76,0.00,,,0.00,weatherlink.com 1.10,2013-04-11 15:11:00,
2013-04-11 11:26:00,81.8,73.0,29.97,SE,134,6.0,14.0,74,0.00,,,0.00,weatherlink.com 1.10,2013-04-11 15:26:00,
2013-04-11 11:41:00,83.5,73.0,29.97,SSE,156,7.0,17.0,70,0.00,,,0.00,weatherlink.com 1.10,2013-04-11 15:41:00,
2013-04-11 11:56:00,83.6,73.0,29.96,SSE,157,10.0,16.0,70,0.00,,,0.00,weatherlink.com 1.10,2013-04-11 15:56:00,
2013-04-11 12:11:00,83.6,73.0,29.96,East,96,5.0,14.0,70,0.00,,,0.00,weatherlink.com 1.10,2013-04-11 16:11:00,
2013-04-11 12:26:00,84.1,72.0,29.95,East,98,5.0,15.0,68,0.00,,,0.00,weatherlink.com 1.10,2013-04-11 16:26:00,
2013-04-11 12:41:00,85.0,72.0,29.95,East,96,3.0,11.0,66,0.00,,,0.00,weatherlink.com 1.10,2013-04-11 16:41:00,
2013-04-11 12:56:00,84.5,72.0,29.94,East,89,17.0,19.0,66,0.00,,,0.00,weatherlink.com 1.10,2013-04-11 16:56:00,
2013-04-11 13:26:00,86.1,72.0,29.93,South,173,6.0,13.0,62,0.00,,,0.00,weatherlink.com 1.10,2013-04-11 17:26:00,
2013-04-11 13:41:00,87.2,72.0,29.92,East,101,11.0,16.0,60,0.00,,,0.00,weatherlink.com 1.10,2013-04-11 17:41:00,
2013-04-11 13:57:00,88.2,71.0,29.92,SE,128,13.0,13.0,57,0.00,,,0.00,weatherlink.com 1.10,2013-04-11 17:57:00,
2013-04-11 14:27:00,87.0,72.0,29.91,SSW,197,4.0,10.0,61,0.00,,,0.00,weatherlink.com 1.10,2013-04-11 18:27:00,
2013-04-11 14:42:00,87.5,71.0,29.90,SSE,167,8.0,13.0,59,0.00,,,0.00,weatherlink.com 1.10,2013-04-11 18:42:00,
2013-04-11 14:57:00,89.0,72.0,29.89,SSE,152,2.0,10.0,57,0.00,,,0.00,weatherlink.com 1.10,2013-04-11 18:57:00,
2013-04-11 15:12:00,89.3,72.0,29.88,SSE,156,3.0,12.0,56,0.00,,,0.00,weatherlink.com 1.10,2013-04-11 19:12:00,
2013-04-11 15:27:00,87.4,71.0,29.88,SE,146,5.0,10.0,59,0.00,,,0.00,weatherlink.com 1.10,2013-04-11 19:27:00,
2013-04-11 15:42:00,87.5,71.0,29.87,SSW,211,7.0,10.0,58,0.00,,,0.00,weatherlink.com 1.10,2013-04-11 19:42:00,
2013-04-11 15:57:00,87.7,71.0,29.86,ESE,105,2.0,11.0,58,0.00,,,0.00,weatherlink.com 1.10,2013-04-11 19:57:00,
2013-04-11 16:12:00,88.6,71.0,29.85,South,184,3.0,11.0,57,0.00,,,0.00,weatherlink.com 1.10,2013-04-11 20:12:00,
2013-04-11 16:27:00,88.0,71.0,29.84,ESE,119,7.0,9.0,58,0.00,,,0.00,weatherlink.com 1.10,2013-04-11 20:27:00,
2013-04-11 16:42:00,87.4,72.0,29.84,SE,142,12.0,13.0,60,0.00,,,0.00,weatherlink.com 1.10,2013-04-11 20:42:00,
2013-04-11 16:57:00,86.2,72.0,29.84,SE,146,5.0,12.0,62,0.00,,,0.00,weatherlink.com 1.10,2013-04-11 20:57:00,
2013-04-11 17:12:00,85.7,71.0,29.84,ESE,105,9.0,9.0,62,0.00,,,0.00,weatherlink.com 1.10,2013-04-11 21:12:00,
2013-04-11 17:27:00,85.3,72.0,29.84,SE,136,5.0,7.0,64,0.00,,,0.00,weatherlink.com 1.10,2013-04-11 21:27:00,
2013-04-11 17:57:00,86.1,72.0,29.83,ESE,111,6.0,12.0,62,0.00,,,0.00,weatherlink.com 1.10,2013-04-11 21:57:00,
2013-04-11 18:12:00,85.0,72.0,29.83,SE,146,11.0,11.0,65,0.00,,,0.00,weatherlink.com 1.10,2013-04-11 22:12:00,
2013-04-11 18:27:00,82.3,74.0,29.84,SSW,213,2.0,17.0,75,0.01,,,0.01,weatherlink.com 1.10,2013-04-11 22:27:00,
2013-04-11 18:42:00,76.1,73.0,29.85,West,273,0.0,2.0,89,0.04,,,0.04,weatherlink.com 1.10,2013-04-11 22:42:00,
2013-04-11 18:57:00,75.3,74.0,29.84,South,188,1.0,2.0,94,0.04,,,0.04,weatherlink.com 1.10,2013-04-11 22:57:00,
2013-04-11 19:12:00,75.7,74.0,29.85,SW,229,0.0,2.0,95,0.04,,,0.04,weatherlink.com 1.10,2013-04-11 23:12:00,
2013-04-11 19:27:00,75.8,74.0,29.85,SE,135,3.0,6.0,93,0.03,,,0.04,weatherlink.com 1.10,2013-04-11 23:27:00,
2013-04-11 19:42:00,75.3,73.0,29.86,SSE,160,0.0,4.0,92,0.00,,,0.04,weatherlink.com 1.10,2013-04-11 23:42:00,
2013-04-11 19:57:00,74.7,72.0,29.85,SSE,152,0.0,3.0,92,0.00,,,0.04,weatherlink.com 1.10,2013-04-11 23:57:00,
2013-04-11 20:12:00,74.4,72.0,29.85,SE,133,0.0,3.0,92,0.00,,,0.04,weatherlink.com 1.10,2013-04-12 00:12:00,
2013-04-11 20:27:00,74.5,72.0,29.85,SE,129,1.0,3.0,91,0.00,,,0.04,weatherlink.com 1.10,2013-04-12 00:27:00,
2013-04-11 20:42:00,75.1,72.0,29.84,SE,145,2.0,8.0,91,0.00,,,0.04,weatherlink.com 1.10,2013-04-12 00:42:00,
2013-04-11 20:57:00,75.8,72.0,29.84,SE,143,1.0,5.0,89,0.00,,,0.04,weatherlink.com 1.10,2013-04-12 00:57:00,
2013-04-11 21:13:00,76.2,73.0,29.84,ESE,123,2.0,5.0,89,0.00,,,0.04,weatherlink.com 1.10,2013-04-12 01:13:00,
2013-04-11 21:27:00,76.5,73.0,29.84,SE,129,4.0,7.0,88,0.00,,,0.04,weatherlink.com 1.10,2013-04-12 01:27:00,
2013-04-11 21:42:00,76.3,73.0,29.84,SE,134,2.0,7.0,88,0.00,,,0.04,weatherlink.com 1.10,2013-04-12 01:42:00,
2013-04-11 21:57:00,76.0,72.0,29.84,SE,138,3.0,9.0,88,0.00,,,0.04,weatherlink.com 1.10,2013-04-12 01:57:00,
2013-04-11 22:12:00,75.8,72.0,29.84,South,179,4.0,8.0,88,0.00,,,0.04,weatherlink.com 1.10,2013-04-12 02:12:00,
2013-04-11 22:27:00,75.7,72.0,29.84,SSW,197,6.0,9.0,88,0.00,,,0.04,weatherlink.com 1.10,2013-04-12 02:27:00,
2013-04-11 22:42:00,75.8,72.0,29.85,East,101,5.0,11.0,88,0.00,,,0.04,weatherlink.com 1.10,2013-04-12 02:42:00,
2013-04-11 22:57:00,75.8,72.0,29.87,SE,133,5.0,7.0,88,0.00,,,0.04,weatherlink.com 1.10,2013-04-12 02:57:00,
2013-04-11 23:12:00,75.6,72.0,29.88,SE,146,6.0,8.0,88,0.00,,,0.04,weatherlink.com 1.10,2013-04-12 03:12:00,
2013-04-11 23:27:00,75.2,72.0,29.88,SE,141,2.0,5.0,89,0.00,,,0.04,weatherlink.com 1.10,2013-04-12 03:27:00,
2013-04-11 23:42:00,74.9,72.0,29.89,SSE,154,0.0,7.0,89,0.00,,,0.04,weatherlink.com 1.10,2013-04-12 03:42:00,
2013-04-11 23:57:00,74.8,72.0,29.89,South,169,3.0,7.0,90,0.00,,,0.04,weatherlink.com 1.10,2013-04-12 03:57:00,